Clear Sky Current Weather (METAR) For Amsterdam Schiphol Airport

All times on the weather descriptions are local

Observed at 02:55 - (25 mins ago)

Clear Sky

14°C

Clear Sky
Clouds:
Wind: 070° at 11 knots, varying from 030° to 090
Visibility: 7,000m
QNH: 1014
Dew Point: 12°C
Runways with a headwind: Runway 06, Runway 09, Runways 36L/C/R

Sunrise Today: 06:19
Sunset Today: 20:58

Forecast Weather (TAF) For Amsterdam Schiphol Airport

Issued at 02:00 - (4 days 22 hrs ago)


Runways with a headwind: Unable to determine, wind is clam

Forecast valid until 02:00 on Wednesday

METAR/TAF RAW METAR / TAF

EHAM 250055Z 07011KT 030V090 7000 NSC 14/12 Q1014 NOSIG

Weather Widget

Put weather from any of our airports on your website with our weather widget.

Find Another Search

Airport Search


Please Wait Please Wait - Loading
Close
Close

Login

Username:

Password:

Remember Me:

Remember me on this computer

Forgotten your password? Get a reset password sent to your registered e-mail address

Close

User Private Message

Subject:

Message: